Time;durP1;ratioP1;P1;durP2;ratioP2;P2;SDS_P1;SDS_P2;PMS_P1;PMS_P2;Temp;Humidity;BMP_temperature;BMP_pressure;BME280_temperature;BME280_humidity;BME280_pressure;Samples;Min_cycle;Max_cycle;Signal;HPM_P1;HPM_P2
2023/06/09 00:01:20;;;;;;;39.20;12.15;;;10.80;99.90;;;;;;5034040;28;20045;-28
2023/06/09 00:03:47;;;;;;;26.50;11.57;;;10.80;99.90;;;;;;5034643;28;20124;-28
2023/06/09 00:06:13;;;;;;;22.75;9.57;;;10.80;99.90;;;;;;5033073;28;20073;-28
2023/06/09 00:08:39;;;;;;;22.27;9.18;;;10.70;99.90;;;;;;5032681;28;20512;-28
2023/06/09 00:11:05;;;;;;;27.08;9.93;;;10.80;99.90;;;;;;5034497;28;20092;-29
2023/06/09 00:13:31;;;;;;;18.50;8.77;;;10.70;99.90;;;;;;5033922;28;20092;-28
2023/06/09 00:15:56;;;;;;;28.48;9.93;;;10.70;99.90;;;;;;5032360;28;20155;-28
2023/06/09 00:18:24;;;;;;;24.80;9.27;;;10.70;99.90;;;;;;5033246;28;20049;-28
2023/06/09 00:20:50;;;;;;;26.52;9.45;;;10.70;99.90;;;;;;5033702;28;20046;-29
2023/06/09 00:23:16;;;;;;;26.58;8.48;;;10.80;99.90;;;;;;5032654;28;20068;-28
2023/06/09 00:25:42;;;;;;;23.90;8.52;;;10.70;99.90;;;;;;5034281;28;20057;-28
2023/06/09 00:28:09;;;;;;;20.33;8.50;;;10.80;99.90;;;;;;5032094;28;20041;-29
2023/06/09 00:30:35;;;;;;;28.58;8.70;;;10.80;99.90;;;;;;5033315;28;20120;-28
2023/06/09 00:33:01;;;;;;;23.05;8.48;;;10.80;99.90;;;;;;5034168;28;20489;-28
2023/06/09 00:35:27;;;;;;;18.75;8.02;;;10.80;99.90;;;;;;5016230;28;20038;-28
2023/06/09 00:37:52;;;;;;;22.17;8.75;;;10.80;99.90;;;;;;5032396;28;20477;-29
2023/06/09 00:40:20;;;;;;;27.33;8.65;;;10.70;99.90;;;;;;5033557;28;20049;-28
2023/06/09 00:42:46;;;;;;;24.38;8.10;;;10.80;99.90;;;;;;5033792;28;20397;-28
2023/06/09 00:45:14;;;;;;;27.13;9.55;;;10.80;99.90;;;;;;5033537;28;20075;-28
2023/06/09 00:47:40;;;;;;;21.55;7.93;;;10.80;99.90;;;;;;5033415;28;20501;-29
2023/06/09 00:50:06;;;;;;;20.63;8.35;;;10.80;99.90;;;;;;5033404;28;20489;-28
2023/06/09 00:52:32;;;;;;;25.63;9.15;;;10.80;99.90;;;;;;5032489;28;20375;-28
2023/06/09 00:54:58;;;;;;;24.30;8.93;;;10.90;99.90;;;;;;5033432;28;20159;-28
2023/06/09 00:57:24;;;;;;;19.73;7.90;;;10.90;99.90;;;;;;5032484;28;20053;-28
2023/06/09 00:59:50;;;;;;;19.67;8.35;;;10.90;99.90;;;;;;5016015;28;20127;-28
2023/06/09 01:02:16;;;;;;;31.38;8.90;;;10.90;99.90;;;;;;5033928;28;20104;-29
2023/06/09 01:04:49;;;;;;;27.95;9.40;;;10.90;99.90;;;;;;5032199;28;20053;-29
2023/06/09 01:07:28;;;;;;;23.77;9.63;;;10.90;99.90;;;;;;5033880;28;20045;-28
2023/06/09 01:10:12;;;;;;;26.33;9.13;;;10.90;99.90;;;;;;5033398;28;20049;-28
2023/06/09 01:12:59;;;;;;;22.52;10.32;;;10.90;99.90;;;;;;5033278;28;20121;-28
2023/06/09 01:15:38;;;;;;;23.35;9.25;;;10.90;99.90;;;;;;5032621;28;20057;-28
2023/06/09 01:18:08;;;;;;;28.35;9.10;;;10.90;99.90;;;;;;5033280;28;20057;-28
2023/06/09 01:20:44;;;;;;;20.83;9.68;;;10.90;99.90;;;;;;5033174;28;20489;-28
2023/06/09 01:23:22;;;;;;;22.05;9.13;;;10.90;99.90;;;;;;5033774;28;20056;-28
2023/06/09 01:25:50;;;;;;;29.58;10.23;;;10.90;99.90;;;;;;5033731;28;20374;-28
2023/06/09 01:28:20;;;;;;;27.20;10.43;;;11.00;99.90;;;;;;5032770;28;20053;-28
2023/06/09 01:30:48;;;;;;;25.73;10.20;;;11.00;99.90;;;;;;5034128;28;20049;-28
2023/06/09 01:33:23;;;;;;;23.17;9.60;;;11.00;99.90;;;;;;5036867;28;20060;-28
2023/06/09 01:35:50;;;;;;;25.80;9.40;;;11.10;99.90;;;;;;5037104;28;20134;-28
2023/06/09 01:38:19;;;;;;;31.67;10.57;;;11.10;99.90;;;;;;5036784;28;20539;-28
2023/06/09 01:40:45;;;;;;;22.75;8.73;;;11.10;99.90;;;;;;5036704;28;20512;-28
2023/06/09 01:43:11;;;;;;;24.23;9.02;;;11.10;99.90;;;;;;5037172;28;20095;-28
2023/06/09 01:45:36;;;;;;;25.58;8.32;;;11.10;99.90;;;;;;5036594;28;20080;-28
2023/06/09 01:48:18;;;;;;;22.40;9.40;;;11.10;99.90;;;;;;5035425;28;20042;-28
2023/06/09 01:50:55;;;;;;;29.70;10.00;;;11.10;99.90;;;;;;5036611;28;20168;-28
2023/06/09 01:53:28;;;;;;;23.77;10.32;;;11.10;99.90;;;;;;5036514;28;20129;-28
2023/06/09 01:56:19;;;;;;;24.45;9.82;;;11.00;99.90;;;;;;5036517;28;20088;-28
2023/06/09 01:58:53;;;;;;;27.73;8.95;;;11.10;99.90;;;;;;5036000;28;20045;-28
2023/06/09 02:01:21;;;;;;;28.20;10.07;;;11.00;99.90;;;;;;5036638;28;20088;-29
2023/06/09 02:03:49;;;;;;;25.80;9.70;;;11.00;99.90;;;;;;5036829;28;20049;-29
2023/06/09 02:06:18;;;;;;;26.83;9.45;;;11.00;99.90;;;;;;5035982;28;20053;-28
2023/06/09 02:08:44;;;;;;;26.35;9.20;;;10.90;99.90;;;;;;5036090;28;20037;-29
2023/06/09 02:11:10;;;;;;;21.30;9.73;;;10.90;99.90;;;;;;5036126;28;20436;-28
2023/06/09 02:13:37;;;;;;;22.38;9.57;;;10.90;99.90;;;;;;5034948;28;20045;-28
2023/06/09 02:16:03;;;;;;;21.08;9.70;;;10.90;99.90;;;;;;5036064;28;20378;-28
2023/06/09 02:18:29;;;;;;;25.80;9.60;;;10.90;99.90;;;;;;5036011;28;20048;-28
2023/06/09 02:20:55;;;;;;;22.00;9.52;;;10.90;99.90;;;;;;5035901;28;20068;-28
2023/06/09 02:23:22;;;;;;;27.15;8.80;;;10.80;99.90;;;;;;5035908;28;20550;-28
2023/06/09 02:25:48;;;;;;;28.08;9.65;;;10.90;99.90;;;;;;5035830;28;20048;-28
2023/06/09 02:28:16;;;;;;;28.95;9.52;;;10.80;99.90;;;;;;5036300;28;20038;-28
2023/06/09 02:30:42;;;;;;;27.15;9.68;;;10.90;99.90;;;;;;5017886;28;20084;-28
2023/06/09 02:33:08;;;;;;;30.27;9.93;;;10.80;99.90;;;;;;5035745;28;20080;-28
2023/06/09 02:35:34;;;;;;;28.13;10.65;;;10.80;99.90;;;;;;5034600;28;20127;-29
2023/06/09 02:38:05;;;;;;;24.70;10.38;;;10.70;99.90;;;;;;5034670;28;20155;-28
2023/06/09 02:40:31;;;;;;;35.08;13.02;;;10.70;99.90;;;;;;5035912;28;20053;-28
2023/06/09 02:42:57;;;;;;;29.83;11.98;;;10.70;99.90;;;;;;5034999;28;20131;-28
2023/06/09 02:45:23;;;;;;;28.77;11.43;;;10.70;99.90;;;;;;5035559;28;20517;-28
2023/06/09 02:47:48;;;;;;;31.25;11.02;;;10.70;99.90;;;;;;5035935;28;20053;-28
2023/06/09 02:50:14;;;;;;;30.88;12.48;;;10.70;99.90;;;;;;5035431;28;20049;-28
2023/06/09 02:52:40;;;;;;;30.55;12.48;;;10.70;99.90;;;;;;5035414;28;20119;-28
2023/06/09 02:55:06;;;;;;;29.15;11.80;;;10.80;99.90;;;;;;5035318;28;20127;-28
2023/06/09 02:57:32;;;;;;;31.63;12.75;;;10.80;99.90;;;;;;5035277;28;20041;-28
2023/06/09 02:59:58;;;;;;;31.02;11.55;;;10.80;99.90;;;;;;5033980;28;20136;-28
2023/06/09 03:02:26;;;;;;;24.00;11.25;;;10.80;99.90;;;;;;5034109;28;20092;-28
2023/06/09 03:04:52;;;;;;;27.40;11.60;;;10.80;99.90;;;;;;5035150;28;20046;-28
2023/06/09 03:07:18;;;;;;;33.10;12.43;;;10.80;99.90;;;;;;5017590;28;20093;-28
2023/06/09 03:09:44;;;;;;;31.50;11.35;;;10.80;99.90;;;;;;5035055;28;20048;-28
2023/06/09 03:12:10;;;;;;;26.10;12.30;;;10.80;99.90;;;;;;5035286;28;20053;-28
2023/06/09 03:14:36;;;;;;;33.90;14.57;;;10.80;99.90;;;;;;5034050;28;20084;-28
2023/06/09 03:17:04;;;;;;;31.10;13.95;;;10.80;99.90;;;;;;5035441;28;20041;-29
2023/06/09 03:19:30;;;;;;;29.80;14.70;;;10.80;99.90;;;;;;5035444;28;20053;-28
2023/06/09 03:21:57;;;;;;;32.78;14.18;;;10.80;99.90;;;;;;5034670;28;20049;-28
2023/06/09 03:24:26;;;;;;;40.40;16.42;;;10.90;99.90;;;;;;5033893;28;20046;-28
2023/06/09 03:26:52;;;;;;;36.90;16.17;;;10.90;99.90;;;;;;5033490;28;20397;-29
2023/06/09 03:29:19;;;;;;;37.42;17.98;;;10.90;99.90;;;;;;5034832;28;20038;-30
2023/06/09 03:31:45;;;;;;;37.45;16.73;;;10.90;99.90;;;;;;5017156;28;20065;-27
2023/06/09 03:34:11;;;;;;;36.75;16.42;;;10.90;99.90;;;;;;5035335;28;20053;-28
2023/06/09 03:36:36;;;;;;;38.67;17.00;;;11.00;99.90;;;;;;5033361;28;20492;-28
2023/06/09 03:39:03;;;;;;;36.80;17.17;;;11.00;99.90;;;;;;5034394;28;20477;-27
2023/06/09 03:41:28;;;;;;;36.05;16.52;;;11.00;99.90;;;;;;5017065;28;20084;-28
2023/06/09 03:43:54;;;;;;;36.92;16.67;;;11.00;99.90;;;;;;5034320;28;20536;-28
2023/06/09 03:46:20;;;;;;;41.35;17.00;;;11.10;99.90;;;;;;5034449;28;20124;-28
2023/06/09 03:48:46;;;;;;;47.50;17.40;;;11.10;99.90;;;;;;5034932;28;20067;-28
2023/06/09 03:51:12;;;;;;;33.40;16.17;;;11.10;99.90;;;;;;5034254;28;20485;-28
2023/06/09 03:53:38;;;;;;;44.70;18.60;;;11.20;99.90;;;;;;5015872;28;20504;-28
2023/06/09 03:56:04;;;;;;;34.33;16.33;;;11.20;99.90;;;;;;5033492;28;20061;-28
2023/06/09 03:58:29;;;;;;;35.35;17.80;;;11.20;99.90;;;;;;5033719;28;20045;-28
2023/06/09 04:00:55;;;;;;;43.95;16.35;;;11.30;99.90;;;;;;5034665;28;20188;-28
2023/06/09 04:03:21;;;;;;;33.53;14.57;;;11.30;99.90;;;;;;5034005;28;20045;-28
2023/06/09 04:05:47;;;;;;;39.65;15.48;;;11.40;99.90;;;;;;5032768;28;20042;-28
2023/06/09 04:08:13;;;;;;;31.10;15.25;;;11.40;99.90;;;;;;5033941;28;20452;-28
2023/06/09 04:10:40;;;;;;;33.65;16.23;;;11.40;99.90;;;;;;5032978;28;20037;-28
2023/06/09 04:13:06;;;;;;;36.25;13.82;;;11.50;99.90;;;;;;5032668;28;20056;-28
2023/06/09 04:15:32;;;;;;;38.50;15.20;;;11.60;99.90;;;;;;5034116;28;20092;-28
2023/06/09 04:17:58;;;;;;;28.75;14.13;;;11.60;99.90;;;;;;5032290;28;20085;-28
2023/06/09 04:20:24;;;;;;;29.50;14.13;;;11.60;99.90;;;;;;5033843;28;20468;-28
2023/06/09 04:22:51;;;;;;;29.90;13.95;;;11.70;99.90;;;;;;5033754;28;20049;-28
2023/06/09 04:25:19;;;;;;;30.77;14.23;;;11.70;99.90;;;;;;5033652;28;20054;-28
2023/06/09 04:27:48;;;;;;;32.90;13.32;;;11.80;99.90;;;;;;5032725;28;20054;-29
2023/06/09 04:30:13;;;;;;;24.23;12.65;;;11.90;99.90;;;;;;5033438;28;20119;-28
2023/06/09 04:32:39;;;;;;;27.67;12.10;;;11.90;99.90;;;;;;5033086;28;20054;-28
2023/06/09 04:35:05;;;;;;;30.00;11.45;;;12.00;99.90;;;;;;5033586;28;20132;-28
2023/06/09 04:37:31;;;;;;;24.10;11.55;;;12.00;99.90;;;;;;5033400;28;20042;-28
2023/06/09 04:39:58;;;;;;;23.25;10.45;;;12.10;99.90;;;;;;5033477;28;20048;-28
2023/06/09 04:42:24;;;;;;;26.13;10.48;;;12.20;99.90;;;;;;5000283;28;20037;-29
2023/06/09 04:44:50;;;;;;;26.88;10.32;;;12.20;99.90;;;;;;5033534;28;20075;-28
2023/06/09 04:47:17;;;;;;;23.05;9.38;;;12.30;99.90;;;;;;5033907;28;20056;-28
2023/06/09 04:49:47;;;;;;;19.08;8.07;;;12.40;99.90;;;;;;5033415;28;20100;-28
2023/06/09 04:52:17;;;;;;;22.67;9.75;;;12.40;99.90;;;;;;5033682;28;20404;-28
2023/06/09 04:54:44;;;;;;;21.30;8.50;;;12.50;99.90;;;;;;5032577;28;20496;-29
2023/06/09 04:57:11;;;;;;;21.85;9.07;;;12.60;99.90;;;;;;5033280;28;20060;-28
2023/06/09 04:59:40;;;;;;;21.13;8.88;;;12.70;99.90;;;;;;5032096;28;20135;-28
2023/06/09 05:02:08;;;;;;;20.25;8.73;;;12.80;99.90;;;;;;5033240;28;20046;-28
2023/06/09 05:04:34;;;;;;;19.90;6.97;;;13.00;99.90;;;;;;5033200;28;20054;-28
2023/06/09 05:07:01;;;;;;;17.13;7.55;;;13.60;99.90;;;;;;5037381;28;20076;-28
2023/06/09 05:09:28;;;;;;;18.55;7.13;;;14.10;99.90;;;;;;5037188;28;20048;-28
2023/06/09 05:11:53;;;;;;;26.50;9.02;;;14.50;99.90;;;;;;5036489;28;20045;-28
2023/06/09 05:14:19;;;;;;;16.38;6.97;;;14.80;99.90;;;;;;5037397;28;20133;-28
2023/06/09 05:16:45;;;;;;;18.55;6.72;;;14.70;99.90;;;;;;5035963;28;20045;-29
2023/06/09 05:19:11;;;;;;;22.00;6.93;;;14.50;99.90;;;;;;5037636;28;20112;-28
2023/06/09 05:21:38;;;;;;;21.48;7.70;;;14.60;99.90;;;;;;5019457;28;20056;-28
2023/06/09 05:24:05;;;;;;;18.70;8.02;;;15.00;99.90;;;;;;5037096;28;20057;-28
2023/06/09 05:26:31;;;;;;;24.55;7.65;;;15.50;99.90;;;;;;5037258;28;20045;-28
2023/06/09 05:28:56;;;;;;;21.23;7.55;;;15.90;99.90;;;;;;5036753;28;20048;-27
2023/06/09 05:31:23;;;;;;;20.50;6.50;;;16.10;99.90;;;;;;5018950;28;20045;-28
2023/06/09 05:33:49;;;;;;;15.57;6.78;;;16.30;99.90;;;;;;5037288;28;20128;-28
2023/06/09 05:36:15;;;;;;;14.35;6.05;;;16.60;99.90;;;;;;5036534;28;20092;-28
2023/06/09 05:38:41;;;;;;;19.83;6.40;;;16.80;99.90;;;;;;5035676;28;20080;-28
2023/06/09 05:41:07;;;;;;;13.40;6.53;;;17.00;1.00;;;;;;5035393;28;20466;-29
2023/06/09 05:43:33;;;;;;;23.30;7.03;;;17.10;1.00;;;;;;5036559;28;20081;-29
2023/06/09 05:45:59;;;;;;;25.42;7.72;;;17.30;1.00;;;;;;5003655;28;20461;-29
2023/06/09 05:48:24;;;;;;;15.77;6.80;;;17.60;1.00;;;;;;5036397;28;20088;-28
2023/06/09 05:50:50;;;;;;;17.48;6.45;;;17.80;99.90;;;;;;5019256;28;20489;-29
2023/06/09 05:53:16;;;;;;;15.52;6.63;;;18.00;99.90;;;;;;5036387;28;20370;-28
2023/06/09 05:55:44;;;;;;;18.00;6.40;;;18.10;99.90;;;;;;5036940;28;20045;-28
2023/06/09 05:58:11;;;;;;;15.25;6.18;;;18.30;99.90;;;;;;5036415;28;20071;-28
2023/06/09 06:00:37;;;;;;;19.23;7.03;;;18.30;51.50;;;;;;5034816;28;20532;-29
2023/06/09 06:03:03;;;;;;;19.05;6.13;;;18.20;1.00;;;;;;5036236;28;20042;-28
2023/06/09 06:05:29;;;;;;;18.40;6.82;;;18.30;1.00;;;;;;5036173;28;20128;-28
2023/06/09 06:07:58;;;;;;;16.77;6.40;;;18.50;1.00;;;;;;5036026;28;20111;-28
2023/06/09 06:10:25;;;;;;;13.32;5.47;;;18.60;99.90;;;;;;5036584;28;20060;-29
2023/06/09 06:12:51;;;;;;;15.63;6.05;;;18.60;99.90;;;;;;5036076;28;20041;-28
2023/06/09 06:15:17;;;;;;;18.13;5.72;;;18.70;99.90;;;;;;5036008;28;20049;-28
2023/06/09 06:17:42;;;;;;;16.38;5.65;;;19.00;99.90;;;;;;5035665;28;20047;-28
2023/06/09 06:20:09;;;;;;;17.80;6.20;;;19.30;99.90;;;;;;5035986;28;20045;-29
2023/06/09 06:22:35;;;;;;;14.00;5.60;;;19.50;69.50;;;;;;5035759;28;20111;-32
2023/06/09 06:25:00;;;;;;;11.90;5.68;;;19.60;1.00;;;;;;5035799;28;20045;-28
2023/06/09 06:27:27;;;;;;;16.05;6.18;;;19.90;1.00;;;;;;5035783;28;20045;-29
2023/06/09 06:29:53;;;;;;;19.98;7.55;;;19.80;99.90;;;;;;5034585;28;20539;-29
2023/06/09 06:32:18;;;;;;;13.60;6.05;;;19.70;99.90;;;;;;5036587;28;20053;-29
2023/06/09 06:34:44;;;;;;;12.77;4.53;;;19.50;99.90;;;;;;5036194;28;20045;-29
2023/06/09 06:37:11;;;;;;;18.27;5.97;;;19.80;99.90;;;;;;5035621;28;20041;-29
2023/06/09 06:39:36;;;;;;;16.70;5.82;;;20.00;99.90;;;;;;5035585;28;20049;-29
2023/06/09 06:42:02;;;;;;;18.15;5.55;;;20.40;99.90;;;;;;5018069;28;20582;-28
2023/06/09 06:44:28;;;;;;;13.82;4.82;;;20.50;1.00;;;;;;5035547;28;20132;-29
2023/06/09 06:46:54;;;;;;;12.65;4.88;;;20.70;1.00;;;;;;5034378;28;20041;-29
2023/06/09 06:49:19;;;;;;;12.32;4.68;;;20.60;99.90;;;;;;5035869;28;20045;-29
2023/06/09 06:51:45;;;;;;;15.38;5.47;;;20.90;99.90;;;;;;5035618;28;20071;-30
2023/06/09 06:54:11;;;;;;;19.73;5.72;;;21.10;99.90;;;;;;5035274;28;20549;-29
2023/06/09 06:56:37;;;;;;;17.50;4.63;;;21.30;99.90;;;;;;5034949;28;20055;-29
2023/06/09 06:59:03;;;;;;;15.10;5.82;;;21.20;1.00;;;;;;5035165;28;20049;-29
2023/06/09 07:01:30;;;;;;;13.73;5.55;;;21.10;1.00;;;;;;5035213;28;20103;-29
2023/06/09 07:03:56;;;;;;;15.30;4.82;;;21.00;1.00;;;;;;5035128;28;20472;-29
2023/06/09 07:06:21;;;;;;;18.08;5.40;;;21.00;1.00;;;;;;5035523;28;20045;-29
2023/06/09 07:08:48;;;;;;;13.30;5.45;;;21.20;1.00;;;;;;5034550;28;20048;-28
2023/06/09 07:11:14;;;;;;;12.65;5.25;;;21.30;99.90;;;;;;5033959;28;20045;-30
2023/06/09 07:13:40;;;;;;;24.52;6.28;;;21.10;99.90;;;;;;5034902;28;20053;-29
2023/06/09 07:16:06;;;;;;;14.48;5.20;;;21.30;99.90;;;;;;5033727;28;20049;-29
2023/06/09 07:18:31;;;;;;;12.27;4.88;;;21.70;99.90;;;;;;5034940;28;20038;-28
2023/06/09 07:20:57;;;;;;;13.35;5.10;;;22.10;99.90;;;;;;5034131;28;20087;-28
2023/06/09 07:23:23;;;;;;;12.55;4.60;;;22.10;1.00;;;;;;5033663;28;20119;-29
2023/06/09 07:25:49;;;;;;;14.55;5.43;;;22.30;1.00;;;;;;5033336;28;20409;-30
2023/06/09 07:28:14;;;;;;;12.77;5.50;;;22.30;1.00;;;;;;5035017;28;20052;-29
2023/06/09 07:30:41;;;;;;;12.73;4.57;;;22.40;99.90;;;;;;5033949;28;20051;-29
2023/06/09 07:33:08;;;;;;;14.63;5.00;;;22.00;1.00;;;;;;5034580;28;20496;-29
2023/06/09 07:35:33;;;;;;;14.40;5.57;;;22.10;99.90;;;;;;5033542;28;20049;-29
2023/06/09 07:38:00;;;;;;;13.65;5.07;;;22.10;99.90;;;;;;5034420;28;20053;-29
2023/06/09 07:40:26;;;;;;;11.45;5.22;;;22.30;1.00;;;;;;5034367;28;20405;-29
2023/06/09 07:42:52;;;;;;;12.75;4.78;;;22.70;99.90;;;;;;5033079;28;20048;-29
2023/06/09 07:45:18;;;;;;;14.65;5.05;;;22.80;99.90;;;;;;5033754;28;20041;-29
2023/06/09 07:47:44;;;;;;;11.75;5.30;;;23.10;99.90;;;;;;5034830;28;20049;-29
2023/06/09 07:50:10;;;;;;;17.40;6.72;;;23.40;99.90;;;;;;5034203;28;20049;-29
2023/06/09 07:52:39;;;;;;;14.35;5.50;;;23.30;1.00;;;;;;5034175;28;20068;-29
2023/06/09 07:55:08;;;;;;;15.73;5.10;;;23.30;1.00;;;;;;5033810;28;20558;-29
2023/06/09 07:57:34;;;;;;;14.77;4.82;;;23.40;1.00;;;;;;5034105;28;20052;-29
2023/06/09 08:00:00;;;;;;;11.13;4.75;;;23.70;1.00;;;;;;5032913;28;20045;-30
2023/06/09 08:02:26;;;;;;;13.82;5.25;;;23.50;99.90;;;;;;5032885;28;20041;-29
2023/06/09 08:04:52;;;;;;;12.20;5.28;;;23.50;99.90;;;;;;5032953;28;20499;-29
2023/06/09 08:07:18;;;;;;;11.90;4.63;;;23.80;99.90;;;;;;5034690;28;20056;-29
2023/06/09 08:09:43;;;;;;;14.40;4.95;;;23.90;99.90;;;;;;5034726;28;20044;-30
2023/06/09 08:12:11;;;;;;;11.35;4.63;;;23.90;99.90;;;;;;5016187;28;20045;-29
2023/06/09 08:14:37;;;;;;;11.65;4.57;;;24.20;99.90;;;;;;5033791;28;20052;-30
2023/06/09 08:17:03;;;;;;;14.77;5.07;;;24.20;99.90;;;;;;5034583;28;20041;-30
2023/06/09 08:19:28;;;;;;;13.05;5.90;;;24.50;99.90;;;;;;5032636;28;20045;-30
2023/06/09 08:21:55;;;;;;;10.48;4.95;;;24.70;52.60;;;;;;5033744;28;20041;-29
2023/06/09 08:24:20;;;;;;;11.88;4.70;;;25.00;99.90;;;;;;5033685;28;20133;-29
2023/06/09 08:26:48;;;;;;;11.40;4.88;;;25.30;95.80;;;;;;5033621;28;20132;-29
2023/06/09 08:29:15;;;;;;;13.95;5.55;;;25.00;1.00;;;;;;5032450;28;20045;-29
2023/06/09 08:31:41;;;;;;;11.48;4.70;;;25.40;15.90;;;;;;5032126;28;20053;-30
2023/06/09 08:34:07;;;;;;;9.07;4.47;;;25.30;1.00;;;;;;5033579;28;20050;-29
2023/06/09 08:36:33;;;;;;;10.73;4.70;;;25.60;1.00;;;;;;5033600;28;20045;-30
2023/06/09 08:38:59;;;;;;;10.02;4.10;;;25.50;1.00;;;;;;5033902;28;20046;-29
2023/06/09 08:41:34;;;;;;;9.88;5.35;;;25.80;1.00;;;;;;5033216;28;20386;-29
2023/06/09 08:44:01;;;;;;;10.30;4.70;;;26.20;1.00;;;;;;5033874;28;20160;-30
2023/06/09 08:46:32;;;;;;;11.02;4.65;;;25.90;1.00;;;;;;5016500;28;20102;-29
2023/06/09 08:49:01;;;;;;;12.55;4.57;;;26.00;99.90;;;;;;5032376;28;20103;-29
2023/06/09 08:51:28;;;;;;;12.65;5.15;;;26.30;1.00;;;;;;5032680;28;20049;-29
2023/06/09 08:53:54;;;;;;;10.00;4.32;;;26.20;99.90;;;;;;5033378;28;20056;-29
2023/06/09 08:56:21;;;;;;;9.25;4.70;;;26.10;99.90;;;;;;5033337;28;20175;-28
2023/06/09 08:58:51;;;;;;;11.52;5.00;;;26.50;99.90;;;;;;5033880;28;20042;-29
2023/06/09 09:01:18;;;;;;;10.23;4.80;;;26.70;99.90;;;;;;5033282;28;20568;-29
2023/06/09 09:03:50;;;;;;;9.65;4.32;;;27.20;99.90;;;;;;5034142;28;20397;-29
2023/06/09 09:06:16;;;;;;;12.52;4.85;;;27.40;99.90;;;;;;5016680;28;20053;-29
2023/06/09 09:08:43;;;;;;;13.13;5.15;;;27.30;99.90;;;;;;5032054;28;20077;-29
2023/06/09 09:11:12;;;;;;;10.23;4.32;;;27.50;99.90;;;;;;5033219;28;20093;-29
2023/06/09 09:13:39;;;;;;;12.70;4.47;;;27.20;99.90;;;;;;5031759;28;20528;-29
2023/06/09 09:16:04;;;;;;;12.57;4.82;;;27.30;99.90;;;;;;5033222;28;20049;-28
2023/06/09 09:18:34;;;;;;;9.65;4.45;;;27.20;99.90;;;;;;5032002;28;20107;-29
2023/06/09 09:21:01;;;;;;;11.77;4.60;;;27.60;99.90;;;;;;5031857;28;20049;-28
2023/06/09 09:23:31;;;;;;;11.38;4.70;;;27.80;99.90;;;;;;5033209;28;20056;-29
2023/06/09 09:26:02;;;;;;;12.48;5.00;;;28.20;99.90;;;;;;5032095;28;20056;-28
2023/06/09 09:28:42;;;;;;;12.90;4.78;;;28.00;99.90;;;;;;5032983;28;20128;-29
2023/06/09 09:31:08;;;;;;;11.02;4.70;;;28.10;99.90;;;;;;5033175;28;20481;-29
2023/06/09 09:33:41;;;;;;;8.65;4.38;;;28.30;99.90;;;;;;5033017;28;20053;-29
2023/06/09 09:36:12;;;;;;;12.15;4.85;;;28.40;99.90;;;;;;5033304;28;20443;-29
2023/06/09 09:38:44;;;;;;;10.95;4.57;;;28.40;99.90;;;;;;5033799;28;20050;-29
2023/06/09 09:41:14;;;;;;;13.50;4.30;;;28.70;99.90;;;;;;5033833;28;20049;-29
2023/06/09 09:43:40;;;;;;;11.70;4.80;;;28.70;99.90;;;;;;5032808;28;20056;-30
2023/06/09 09:46:07;;;;;;;13.10;4.50;;;28.90;99.90;;;;;;5032906;28;20049;-30
2023/06/09 09:48:37;;;;;;;9.95;4.45;;;28.90;99.90;;;;;;5032805;28;20052;-29
2023/06/09 09:51:04;;;;;;;7.97;4.57;;;28.80;99.90;;;;;;5033456;28;20045;-29
2023/06/09 09:53:30;;;;;;;9.85;4.63;;;28.90;99.90;;;;;;5036319;28;20060;-29
2023/06/09 09:55:59;;;;;;;13.90;4.65;;;29.30;99.90;;;;;;5019711;28;20373;-29
2023/06/09 09:58:30;;;;;;;10.85;4.85;;;29.50;99.90;;;;;;5019463;28;20111;-29
2023/06/09 10:00:58;;;;;;;11.90;4.72;;;29.50;99.90;;;;;;5019651;28;20053;-29
2023/06/09 10:03:25;;;;;;;9.70;4.13;;;29.50;99.90;;;;;;5036219;28;20060;-29
2023/06/09 10:05:54;;;;;;;10.38;4.32;;;29.60;99.90;;;;;;5035066;28;20049;-29
2023/06/09 10:08:27;;;;;;;11.00;4.00;;;29.60;99.90;;;;;;5036688;28;20129;-29
2023/06/09 10:10:56;;;;;;;9.48;4.10;;;29.90;99.90;;;;;;5035030;28;20045;-31
2023/06/09 10:13:22;;;;;;;10.25;4.53;;;29.90;99.90;;;;;;5036101;28;20041;-29
2023/06/09 10:15:51;;;;;;;8.05;4.20;;;30.60;99.90;;;;;;5018563;28;20140;-29
2023/06/09 10:18:17;;;;;;;11.65;5.25;;;30.70;99.90;;;;;;5036506;28;20443;-29
2023/06/09 10:20:44;;;;;;;10.43;4.70;;;30.90;99.90;;;;;;5034844;28;20512;-30
2023/06/09 10:23:10;;;;;;;8.90;4.47;;;31.00;99.90;;;;;;5034648;28;20046;-29
2023/06/09 10:25:37;;;;;;;11.90;4.10;;;30.80;99.90;;;;;;5035562;28;20467;-29
2023/06/09 10:28:03;;;;;;;7.60;4.15;;;30.90;99.90;;;;;;5036575;28;20083;-30
2023/06/09 10:30:30;;;;;;;9.25;4.00;;;30.90;99.90;;;;;;5035808;28;20497;-30
2023/06/09 10:33:11;;;;;;;13.07;4.38;;;30.90;99.90;;;;;;5035398;28;20050;-30
2023/06/09 10:35:40;;;;;;;8.60;4.30;;;31.00;99.90;;;;;;5035659;28;20046;-29
2023/06/09 10:38:42;;;;;;;12.95;4.53;;;30.80;99.90;;;;;;5036091;28;20100;-30
2023/06/09 10:41:15;;;;;;;7.78;4.18;;;30.70;99.90;;;;;;5028722;28;20084;-29
2023/06/09 10:43:50;;;;;;;8.90;4.18;;;30.80;99.90;;;;;;5035885;28;20059;-31
2023/06/09 10:46:16;;;;;;;11.38;4.72;;;30.60;99.90;;;;;;5034936;28;20065;-29
2023/06/09 10:48:43;;;;;;;10.07;4.13;;;30.70;99.90;;;;;;5035390;28;20033;-30
2023/06/09 10:51:44;;;;;;;8.13;4.07;;;30.50;99.90;;;;;;5035021;28;20044;-30
2023/06/09 10:54:12;;;;;;;7.40;4.25;;;30.30;99.90;;;;;;5019255;28;20049;-29
2023/06/09 10:56:42;;;;;;;10.13;4.53;;;30.30;99.90;;;;;;5036040;28;20110;-30
2023/06/09 10:59:30;;;;;;;11.75;4.55;;;30.30;99.90;;;;;;5034670;28;20045;-30
2023/06/09 11:02:05;;;;;;;11.20;4.63;;;30.50;99.90;;;;;;5035652;28;20057;-29
2023/06/09 11:07:09;;;;;;;8.70;4.20;;;31.00;99.90;;;;;;5035252;28;20056;-30
2023/06/09 11:09:36;;;;;;;11.45;4.95;;;31.50;99.90;;;;;;5035333;28;20049;-30
2023/06/09 11:12:02;;;;;;;9.63;4.20;;;31.20;99.90;;;;;;5035032;28;20168;-30
2023/06/09 11:14:46;;;;;;;9.35;4.32;;;30.90;99.90;;;;;;5033743;28;20053;-31
2023/06/09 11:17:16;;;;;;;10.35;4.20;;;31.10;99.90;;;;;;5034680;28;20560;-29
2023/06/09 11:19:42;;;;;;;7.90;4.28;;;31.30;99.90;;;;;;5034975;28;20394;-28
2023/06/09 11:22:14;;;;;;;10.93;4.68;;;31.20;99.90;;;;;;5035063;28;20052;-28
2023/06/09 11:24:49;;;;;;;7.55;3.90;;;31.40;99.90;;;;;;5034574;28;20128;-28
2023/06/09 11:27:20;;;;;;;10.60;4.53;;;31.30;99.90;;;;;;5033557;28;20085;-29
2023/06/09 11:30:15;;;;;;;7.80;3.47;;;31.40;99.90;;;;;;5034637;28;20049;-29
2023/06/09 11:33:01;;;;;;;7.20;4.53;;;31.80;99.90;;;;;;5034445;28;20053;-28
2023/06/09 11:35:30;;;;;;;5.50;4.22;;;31.90;99.90;;;;;;5033986;28;20087;-30
2023/06/09 11:38:03;;;;;;;9.75;4.75;;;32.20;99.90;;;;;;5033996;28;20439;-28
2023/06/09 11:40:30;;;;;;;9.02;3.88;;;32.10;99.90;;;;;;5035168;28;20119;-28
2023/06/09 11:42:57;;;;;;;8.50;4.10;;;32.10;99.90;;;;;;5034387;28;20124;-28
2023/06/09 11:45:26;;;;;;;8.93;4.25;;;32.00;99.90;;;;;;5016796;28;20049;-30
2023/06/09 11:48:02;;;;;;;5.97;4.07;;;31.70;99.90;;;;;;5032818;28;20516;-28
2023/06/09 11:50:45;;;;;;;7.05;4.20;;;31.80;99.90;;;;;;5034740;28;20053;-29
2023/06/09 11:53:15;;;;;;;8.65;4.68;;;31.80;99.90;;;;;;5033706;28;20052;-29
2023/06/09 11:55:42;;;;;;;6.65;3.92;;;31.70;99.90;;;;;;5034675;28;20053;-28
2023/06/09 11:58:09;;;;;;;11.05;3.83;;;31.60;99.90;;;;;;5034172;28;20124;-28
2023/06/09 12:00:43;;;;;;;7.47;3.63;;;31.80;99.90;;;;;;5032982;28;20056;-29
2023/06/09 12:03:10;;;;;;;7.75;3.50;;;31.60;99.90;;;;;;5034223;28;20054;-28
2023/06/09 12:05:37;;;;;;;8.40;3.88;;;31.90;99.90;;;;;;5033824;28;20057;-28
2023/06/09 12:08:02;;;;;;;8.65;4.18;;;32.00;99.90;;;;;;5032906;28;20093;-29
2023/06/09 12:10:29;;;;;;;8.68;3.90;;;32.10;99.90;;;;;;5032759;28;20150;-29
2023/06/09 12:13:03;;;;;;;10.43;5.00;;;32.20;99.90;;;;;;5032703;28;20060;-29
2023/06/09 12:15:30;;;;;;;10.85;4.57;;;32.30;99.90;;;;;;5033058;28;20064;-29
2023/06/09 12:17:57;;;;;;;9.13;4.65;;;32.30;99.90;;;;;;5034181;28;20049;-28
2023/06/09 12:20:27;;;;;;;9.13;4.40;;;32.10;99.90;;;;;;5033604;28;20059;-28
2023/06/09 12:23:06;;;;;;;7.30;4.00;;;32.10;99.90;;;;;;5033578;28;20045;-29
2023/06/09 12:25:36;;;;;;;10.55;4.50;;;31.90;99.90;;;;;;5033598;28;20049;-29
2023/06/09 12:28:12;;;;;;;11.63;4.70;;;31.80;99.90;;;;;;5033049;28;20396;-29
2023/06/09 12:30:42;;;;;;;12.50;4.88;;;31.20;99.90;;;;;;5032101;28;20088;-29
2023/06/09 12:33:15;;;;;;;9.95;5.15;;;31.40;99.90;;;;;;5033641;28;20053;-29
2023/06/09 12:35:43;;;;;;;8.00;4.00;;;31.30;99.90;;;;;;5032818;28;20053;-28
2023/06/09 12:38:19;;;;;;;9.77;3.80;;;31.10;99.90;;;;;;5032221;28;20033;-29
2023/06/09 12:40:45;;;;;;;12.07;4.20;;;31.20;99.90;;;;;;5034000;28;20054;-28
2023/06/09 12:43:11;;;;;;;11.50;4.82;;;31.20;99.90;;;;;;5032529;28;20053;-28
2023/06/09 12:45:37;;;;;;;10.90;4.50;;;31.00;99.90;;;;;;5032409;28;20041;-29